Terminal Aerodrome Forecast
Issued by NWS Upton, NY

Home | Current Version | Previous Version | Text Only | Print | Product List | Glossary On
Versions: 1 2 3 4 5 6 7 8 9 10 11 12 13 14 15 16 17 18 19 20 21 22 23 24 25 26 27 28 29 30 31 32 33
000
FTUS41 KOKX 042000 AAA
TAFLGA
TAF AMD
KLGA 042030Z 0421/0518 23008KT 4SM -RA BR FEW020 BKN100 OVC150
      TEMPO 0421/0424 2SM -RA BR
     FM050000 25008KT 2SM -RA BR SCT008 BKN030
     FM050400 28008KT 1SM -RASN BR OVC008
     FM050600 32008KT 1/2SM SN FG VV007
     FM051200 34012G18KT 1SM -SN BR SCT008 OVC020
     FM051500 34012G18KT 2SM -SN BR BKN020 OVC060
     FM051700 34012G18KT P6SM SCT020 OVC060 PROB30 0517/0518 2SM -SN
      BKN020 OVC060=

USA.gov is the U.S. government's official web portal to all federal, state and local government web resources and services.